Time;durP1;ratioP1;P1;durP2;ratioP2;P2;SDS_P1;SDS_P2;PMS_P1;PMS_P2;Temp;Humidity;BMP_temperature;BMP_pressure;BME280_temperature;BME280_humidity;BME280_pressure;Samples;Min_cycle;Max_cycle;Signal;HPM_P1;HPM_P2
2021/12/06 08:02:28;;;;;;;;;9.67;8.00;;;;;10.83;58.76;102223.47;5133953;22;45602;-95
2021/12/06 08:07:41;;;;;;;;;11.67;8.00;;;;;11.08;58.15;102196.66;5437945;22;67982;-96
2021/12/06 08:10:07;;;;;;;;;15.67;12.00;;;;;11.26;57.67;102202.06;5059979;28;45411;-95
2021/12/06 08:12:32;;;;;;;;;15.00;13.67;;;;;11.37;57.52;102198.91;5056984;27;47121;-94
2021/12/06 08:14:58;;;;;;;;;12.67;12.67;;;;;11.44;57.65;102187.03;5062272;27;45335;-95
2021/12/06 08:17:25;;;;;;;;;16.33;14.67;;;;;11.68;57.23;102220.50;5059687;27;45314;-93
2021/12/06 08:19:51;;;;;;;;;21.67;16.33;;;;;11.61;56.92;102187.19;5055203;27;45500;-92
2021/12/06 08:22:16;;;;;;;;;25.33;21.00;;;;;11.69;57.16;102189.47;5074833;27;48183;-93
2021/12/06 08:25:00;;;;;;;;;16.00;13.33;;;;;11.87;57.20;102207.19;5055726;27;45521;-96
2021/12/06 08:27:25;;;;;;;;;13.33;10.67;;;;;11.97;57.75;102199.59;5056261;27;45555;-91
2021/12/06 08:29:50;;;;;;;;;18.67;12.33;;;;;12.03;57.76;102193.13;5080607;27;45656;-90
2021/12/06 08:32:16;;;;;;;;;13.33;11.00;;;;;12.11;57.36;102184.72;5093479;27;46192;-91
2021/12/06 08:34:41;;;;;;;;;17.00;9.33;;;;;12.21;56.91;102185.19;5064159;27;45498;-91
2021/12/06 08:37:11;;;;;;;;;8.00;8.00;;;;;12.41;56.68;102202.78;5086685;27;45446;-91
2021/12/06 08:39:37;;;;;;;;;10.67;8.67;;;;;12.56;56.42;102210.06;5070741;27;45715;-91
2021/12/06 08:42:02;;;;;;;;;9.00;8.00;;;;;12.67;56.64;102213.03;5071125;27;45651;-90
2021/12/06 08:44:28;;;;;;;;;11.33;9.00;;;;;12.75;56.18;102218.81;5050836;27;45547;-92
2021/12/06 08:46:53;;;;;;;;;16.67;12.00;;;;;12.79;56.01;102215.97;5053537;27;45412;-92
2021/12/06 08:49:19;;;;;;;;;13.00;9.00;;;;;12.78;56.00;102204.47;5074071;27;45316;-92
2021/12/06 08:51:46;;;;;;;;;14.33;9.33;;;;;12.78;55.77;102195.59;5051732;28;48228;-92
2021/12/06 08:54:14;;;;;;;;;15.00;11.00;;;;;12.88;55.47;102210.13;5071044;27;45534;-92
2021/12/06 08:56:39;;;;;;;;;14.67;11.00;;;;;13.16;55.69;102243.31;5055700;27;45749;-92
2021/12/06 08:59:14;;;;;;;;;11.67;10.67;;;;;12.97;55.50;102204.31;5051859;27;45723;-91
2021/12/06 09:01:58;;;;;;;;;13.00;12.00;;;;;13.17;55.02;102222.81;5056120;27;47225;-95
2021/12/06 09:04:33;;;;;;;;;18.00;10.75;;;;;13.21;55.07;102226.19;5046655;27;45815;-96
2021/12/06 09:10:40;;;;;;;;;10.00;10.00;;;;;13.41;55.31;102236.63;5082275;27;45261;-90
2021/12/06 09:13:05;;;;;;;;;10.67;10.67;;;;;13.48;55.42;102222.97;5042592;28;45533;-94
2021/12/06 09:15:31;;;;;;;;;15.50;10.50;;;;;13.50;54.70;102210.41;5013972;28;50322;-93
2021/12/06 09:17:56;;;;;;;;;11.75;11.00;;;;;13.58;54.75;102197.53;5037798;28;45546;-90
2021/12/06 09:20:25;;;;;;;;;10.50;9.25;;;;;13.92;54.76;102220.53;5020682;28;45533;-91
2021/12/06 09:22:51;;;;;;;;;13.25;10.75;;;;;14.02;54.44;102223.53;5037062;28;46333;-92
2021/12/06 09:25:16;;;;;;;;;13.00;11.00;;;;;14.26;53.93;102233.72;5024701;28;45450;-91
2021/12/06 09:27:42;;;;;;;;;12.50;12.00;;;;;14.25;53.07;102211.50;5043641;28;45493;-94
2021/12/06 09:30:09;;;;;;;;;15.00;12.00;;;;;14.25;52.88;102195.50;5026478;28;45640;-93
2021/12/06 09:32:35;;;;;;;;;12.25;11.00;;;;;14.28;52.25;102199.78;5039759;28;46232;-91
2021/12/06 09:35:00;;;;;;;;;15.25;11.25;;;;;14.38;52.22;102208.09;5022951;28;45451;-94
2021/12/06 09:37:26;;;;;;;;;13.00;9.75;;;;;14.44;52.46;102218.41;5037457;28;45376;-94
2021/12/06 09:39:52;;;;;;;;;11.75;8.00;;;;;14.39;52.22;102212.50;5027357;28;45739;-94
2021/12/06 09:42:22;;;;;;;;;13.00;11.75;;;;;14.44;51.94;102221.09;5027574;28;47306;-96
2021/12/06 09:44:47;;;;;;;;;12.75;10.00;;;;;14.54;52.09;102236.56;5051283;28;45360;-92
2021/12/06 09:47:12;;;;;;;;;12.25;10.00;;;;;14.45;52.05;102228.16;5042845;28;45557;-93
2021/12/06 09:49:38;;;;;;;;;10.50;10.25;;;;;14.56;52.21;102245.34;5021969;28;45482;-92
2021/12/06 09:52:04;;;;;;;;;13.25;12.00;;;;;14.35;51.87;102201.13;5025047;28;45943;-92
2021/12/06 09:54:36;;;;;;;;;12.00;9.00;;;;;14.60;51.95;102245.03;5023692;28;45639;-93
2021/12/06 09:57:05;;;;;;;;;11.25;11.25;;;;;14.46;52.41;102229.84;5027493;28;45403;-92
2021/12/06 09:59:31;;;;;;;;;13.75;9.50;;;;;14.32;51.93;102205.78;5038374;28;45364;-94
2021/12/06 10:01:59;;;;;;;;;10.50;10.50;;;;;14.64;52.20;102253.75;5025528;28;47822;-93
2021/12/06 10:04:27;;;;;;;;;12.75;11.00;;;;;14.69;51.90;102261.47;5019716;28;45524;-93
2021/12/06 10:06:53;;;;;;;;;10.75;10.50;;;;;14.57;52.02;102244.41;5034117;28;45476;-91
2021/12/06 10:09:21;;;;;;;;;13.25;12.25;;;;;14.62;51.89;102250.31;5050543;28;45421;-95
2021/12/06 10:11:48;;;;;;;;;11.50;9.75;;;;;14.39;52.15;102213.34;5040056;28;47899;-92
2021/12/06 10:14:16;;;;;;;;;16.75;13.00;;;;;14.47;52.19;102220.91;5044593;28;45430;-94
2021/12/06 10:17:02;;;;;;;;;13.25;11.00;;;;;14.54;52.18;102220.53;5047021;28;45361;-96
2021/12/06 10:19:28;;;;;;;;;12.25;11.00;;;;;14.63;52.13;102225.28;5076298;28;45513;-94
2021/12/06 10:21:54;;;;;;;;;13.00;11.75;;;;;14.53;52.29;102208.13;5054939;28;45464;-93
2021/12/06 10:24:22;;;;;;;;;10.00;9.50;;;;;14.69;52.41;102230.28;5072587;27;45397;-92
2021/12/06 10:26:47;;;;;;;;;13.25;12.25;;;;;14.74;52.50;102227.34;5023882;28;45458;-93
2021/12/06 10:29:47;;;;;;;;;13.25;11.25;;;;;14.38;52.36;102157.38;5038755;28;45599;-96
2021/12/06 10:32:24;;;;;;;;;15.00;11.25;;;;;14.55;52.61;102187.50;4962371;28;47227;-95
2021/12/06 10:34:58;;;;;;;;;11.00;9.25;;;;;14.47;52.70;102178.16;4964562;28;45401;-94
2021/12/06 10:40:46;;;;;;;;;13.00;12.00;;;;;14.57;52.50;102185.63;4986237;28;45531;-96
2021/12/06 13:49:25;;;;;;;;;6.00;4.00;;;;;12.29;62.77;101879.59;5050598;27;1557956;-94
2021/12/06 13:52:04;;;;;;;;;5.33;3.00;;;;;12.50;62.83;101882.00;5050298;27;45392;-93
2021/12/06 13:54:36;;;;;;;;;3.50;3.50;;;;;12.74;62.43;101884.16;5035786;27;45370;-92
2021/12/06 13:57:06;;;;;;;;;5.00;3.00;;;;;13.08;62.03;101899.97;5052461;27;45606;-93
2021/12/06 13:59:42;;;;;;;;;7.25;4.50;;;;;13.15;61.60;101881.81;5037979;27;47652;-94
2021/12/06 14:02:37;;;;;;;;;3.00;3.00;;;;;13.34;61.21;101870.03;5040061;27;46560;-94
2021/12/06 14:05:03;;;;;;;;;4.00;3.25;;;;;13.40;60.37;101853.66;4967676;28;45582;-94
2021/12/06 14:07:29;;;;;;;;;5.25;4.00;;;;;13.53;60.12;101858.25;4992109;28;45440;-91
2021/12/06 14:12:34;;;;;;;;;2.75;2.00;;;;;13.77;59.96;101855.00;5127979;22;45278;-94
2021/12/06 14:15:13;;;;;;;;;3.00;3.00;;;;;13.94;59.47;101872.63;5018111;28;45415;-94
2021/12/06 14:17:48;;;;;;;;;4.25;4.00;;;;;14.10;59.55;101876.13;5014584;28;46008;-90
2021/12/06 14:20:16;;;;;;;;;5.00;4.00;;;;;14.09;58.81;101845.91;5007419;28;45432;-92
2021/12/06 14:22:43;;;;;;;;;3.00;3.00;;;;;14.12;59.11;101831.50;4994102;28;45426;-90
2021/12/06 14:25:12;;;;;;;;;2.50;2.25;;;;;14.17;58.37;101818.75;5016847;28;45402;-90
2021/12/06 14:27:37;;;;;;;;;4.00;3.00;;;;;14.51;58.82;101863.72;4998555;28;45459;-92
2021/12/06 14:30:11;;;;;;;;;3.00;3.00;;;;;14.36;58.46;101812.19;4989556;28;47413;-92
2021/12/06 14:33:07;;;;;;;;;3.00;3.00;;;;;14.48;58.09;101815.88;5002647;28;49053;-96
2021/12/06 14:39:40;;;;;;;;;;;;;;;;;;;;;
2021/12/06 14:42:43;;;;;;;;;3.25;3.00;;;;;14.87;57.78;101840.00;4877289;29;45654;-95
2021/12/06 14:46:09;;;;;;;;;;;;;;;;;;;;;
2021/12/06 14:49:48;;;;;;;;;;;;;;;;;;;;;
2021/12/06 14:59:28;;;;;;;;;4.40;4.40;;;;;14.84;57.53;101768.91;4865071;29;45482;-96
2021/12/06 15:01:57;;;;;;;;;6.00;4.00;;;;;14.79;57.07;101748.81;4855995;29;45371;-94
2021/12/06 15:04:40;;;;;;;;;5.50;4.25;;;;;14.98;57.18;101774.28;4847118;29;45427;-93
2021/12/06 15:07:11;;;;;;;;;7.50;3.25;;;;;14.98;57.22;101758.25;4859185;29;47185;-92
2021/12/06 15:09:37;;;;;;;;;5.20;3.80;;;;;14.90;57.10;101735.59;4829794;29;45601;-94
2021/12/06 15:12:03;;;;;;;;;5.00;4.50;;;;;14.94;56.95;101739.75;4835379;29;45831;-92
2021/12/06 15:14:29;;;;;;;;;3.00;3.00;;;;;15.02;57.24;101744.56;4848384;28;45219;-93
2021/12/06 15:16:55;;;;;;;;;3.50;1.50;;;;;14.95;56.91;101729.91;4942182;28;46971;-96
2021/12/06 15:19:55;;;;;;;;;7.00;4.25;;;;;14.93;57.25;101713.16;4948499;28;45766;-93
2021/12/06 15:26:39;;;;;;;;;;;;;;;;;;;;;
2021/12/06 15:29:44;;;;;;;;;4.00;4.00;;;;;15.05;57.13;101728.31;4956816;28;75675;-93
2021/12/06 15:32:37;;;;;;;;;4.80;4.80;;;;;14.95;57.45;101717.41;4944847;28;45457;-93
2021/12/06 15:38:46;;;;;;;;;8.00;5.25;;;;;15.05;57.40;101722.97;4959590;28;45449;-94
2021/12/06 15:44:56;;;;;;;;;6.60;4.00;;;;;15.21;57.47;101742.41;5045468;22;45202;-94
2021/12/06 15:47:40;;;;;;;;;5.00;4.00;;;;;14.90;57.68;101690.16;5001161;28;45416;-92
2021/12/06 15:50:10;;;;;;;;;3.00;3.00;;;;;15.08;57.64;101721.91;5018795;28;45512;-93
2021/12/06 15:53:35;;;;;;;;;;;;;;;;;;;;;
2021/12/06 15:56:07;;;;;;;;;4.00;2.00;;;;;15.08;57.73;101718.38;5036498;28;72364;-96
2021/12/06 15:59:06;;;;;;;;;3.00;3.00;;;;;14.99;57.68;101701.16;5001747;28;45679;-95
2021/12/06 16:02:27;;;;;;;;;2.00;1.25;;;;;15.29;57.57;101750.72;4993676;28;45562;-95
2021/12/06 16:08:38;;;;;;;;;4.20;3.00;;;;;15.25;57.53;101739.41;4995715;28;45472;-92
2021/12/06 16:11:05;;;;;;;;;3.80;1.20;;;;;15.13;57.47;101722.44;4955899;22;45443;-94
2021/12/06 16:13:42;;;;;;;;;3.00;3.00;;;;;15.28;57.47;101749.91;5022972;28;47060;-94
2021/12/06 16:16:12;;;;;;;;;3.00;3.00;;;;;15.08;57.54;101699.66;5020524;28;47274;-93
2021/12/06 16:18:59;;;;;;;;;2.80;2.00;;;;;15.08;57.56;101699.66;5019633;28;45527;-96
2021/12/06 16:21:38;;;;;;;;;2.00;2.00;;;;;15.22;57.64;101720.06;5028726;28;45382;-96
